Terminal Aerodrome Forecast
Issued by NWS Charleston, WV

Home | Current Version | Previous Version | Text Only | Print | Product List | Glossary On
Versions: 1 2 3 4 5 6 7 8 9 10 11 12 13 14 15 16 17 18 19 20 21 22
000
FTUS41 KRLX 060200 AAA
TAFCRW
TAF AMD
KCRW 060255Z 0603/0624 36004KT P6SM BKN025
      TEMPO 0603/0604 BKN015
     FM060500 00000KT P6SM SCT025
     FM061400 27004KT P6SM FEW025
     FM062300 00000KT P6SM FEW200=

USA.gov is the U.S. government's official web portal to all federal, state and local government web resources and services.